createdAt,value
2017-09-24T00:01:26.488Z,14.27
2017-09-24T00:03:53.809Z,13.77
2017-09-24T00:06:21.112Z,12.67
2017-09-24T00:08:48.432Z,13.90
2017-09-24T00:11:15.765Z,13.60
2017-09-24T00:13:45.700Z,13.70
2017-09-24T00:16:13.258Z,13.30
2017-09-24T00:18:40.893Z,15.50
2017-09-24T00:21:08.197Z,14.50
2017-09-24T00:23:35.536Z,14.27
2017-09-24T00:26:02.853Z,14.50
2017-09-24T00:28:30.157Z,16.07
2017-09-24T00:30:57.480Z,15.43
2017-09-24T00:33:24.797Z,14.53
2017-09-24T00:35:52.157Z,13.93
2017-09-24T00:38:20.406Z,13.93
2017-09-24T00:40:47.752Z,14.00
2017-09-24T00:43:15.076Z,14.30
2017-09-24T00:45:42.434Z,13.83
2017-09-24T00:48:09.764Z,14.00
2017-09-24T00:50:37.077Z,13.60
2017-09-24T00:53:04.380Z,13.33
2017-09-24T00:55:32.626Z,13.60
2017-09-24T00:57:59.940Z,14.50
2017-09-24T01:00:27.429Z,14.70
2017-09-24T01:02:54.737Z,14.23
2017-09-24T01:05:22.104Z,15.17
2017-09-24T01:07:49.406Z,15.80
2017-09-24T01:10:16.752Z,15.60
2017-09-24T01:12:44.101Z,15.33
2017-09-24T01:15:11.389Z,14.13
2017-09-24T01:17:38.719Z,15.10
2017-09-24T01:20:06.025Z,14.67
2017-09-24T01:22:33.376Z,14.20
2017-09-24T01:25:00.705Z,12.77
2017-09-24T01:27:28.052Z,13.90
2017-09-24T01:29:55.388Z,13.57
2017-09-24T01:32:22.736Z,12.90
2017-09-24T01:34:50.061Z,11.77
2017-09-24T01:37:17.522Z,13.13
2017-09-24T01:39:44.948Z,12.67
2017-09-24T01:42:12.305Z,12.30
2017-09-24T01:44:40.583Z,13.03
2017-09-24T01:47:07.932Z,13.10
2017-09-24T01:49:35.237Z,13.60
2017-09-24T01:52:02.566Z,12.30
2017-09-24T01:54:29.865Z,13.30
2017-09-24T01:56:57.180Z,12.80
2017-09-24T01:59:24.496Z,12.63
2017-09-24T02:01:51.813Z,13.37
2017-09-24T02:04:19.118Z,13.40
2017-09-24T02:06:46.436Z,13.70
2017-09-24T02:09:13.757Z,12.77
2017-09-24T02:11:41.217Z,12.77
2017-09-24T02:14:08.544Z,13.30
2017-09-24T02:16:35.884Z,11.53
2017-09-24T02:19:03.233Z,9.93
2017-09-24T02:21:30.561Z,9.60
2017-09-24T02:23:57.885Z,8.83
2017-09-24T02:26:25.195Z,8.43
2017-09-24T02:28:52.513Z,8.83
2017-09-24T02:31:19.837Z,9.20
2017-09-24T02:33:47.203Z,9.37
2017-09-24T02:36:14.507Z,9.20
2017-09-24T02:38:41.818Z,8.50
2017-09-24T02:41:09.112Z,9.10
2017-09-24T02:43:36.449Z,8.17
2017-09-24T02:46:03.745Z,7.80
2017-09-24T02:48:31.085Z,7.80
2017-09-24T02:50:58.361Z,6.73
2017-09-24T02:53:25.708Z,6.70
2017-09-24T02:55:53.050Z,6.50
2017-09-24T02:58:20.391Z,6.27
2017-09-24T03:00:47.727Z,6.03
2017-09-24T03:03:15.065Z,6.80
2017-09-24T03:05:42.384Z,7.00
2017-09-24T03:08:09.685Z,7.10
2017-09-24T03:10:36.996Z,6.90
2017-09-24T03:13:04.317Z,6.17
2017-09-24T03:15:31.632Z,6.20
2017-09-24T03:17:59.139Z,6.57
2017-09-24T03:20:26.473Z,6.77
2017-09-24T03:22:53.779Z,6.40
2017-09-24T03:25:21.109Z,6.80
2017-09-24T03:27:48.401Z,7.47
2017-09-24T03:30:15.933Z,6.83
2017-09-24T03:32:43.248Z,7.43
2017-09-24T03:35:10.577Z,7.60
2017-09-24T03:37:37.868Z,7.30
2017-09-24T03:40:05.184Z,6.90
2017-09-24T03:42:32.513Z,7.57
2017-09-24T03:44:59.828Z,7.23
2017-09-24T03:47:27.132Z,7.57
2017-09-24T03:49:54.452Z,7.37
2017-09-24T03:52:21.781Z,7.33
2017-09-24T03:54:49.099Z,7.57
2017-09-24T03:57:16.458Z,7.10
2017-09-24T03:59:44.741Z,7.33
2017-09-24T04:02:12.033Z,7.60
2017-09-24T04:04:39.346Z,6.80
2017-09-24T04:07:06.644Z,9.07
2017-09-24T04:09:33.945Z,8.20
2017-09-24T04:12:01.257Z,9.77
2017-09-24T04:14:28.563Z,8.00
2017-09-24T04:16:55.887Z,8.80
2017-09-24T04:19:23.213Z,7.80
2017-09-24T04:21:50.521Z,8.30
2017-09-24T04:24:17.821Z,7.90
2017-09-24T04:26:45.145Z,8.50
2017-09-24T04:29:12.432Z,8.90
2017-09-24T04:31:39.761Z,8.73
2017-09-24T04:34:07.061Z,8.73
2017-09-24T04:36:34.377Z,9.27
2017-09-24T04:39:01.705Z,8.93
2017-09-24T04:41:29.029Z,8.70
2017-09-24T04:43:56.664Z,10.10
2017-09-24T04:46:24.040Z,10.53
2017-09-24T04:48:51.345Z,10.87
2017-09-24T04:51:18.697Z,11.40
2017-09-24T04:53:46.020Z,11.87
2017-09-24T04:56:13.352Z,12.10
2017-09-24T04:58:40.672Z,12.67
2017-09-24T05:01:07.973Z,12.67
2017-09-24T05:03:35.317Z,13.00
2017-09-24T05:06:02.643Z,14.00
2017-09-24T05:08:30.000Z,13.83
2017-09-24T05:10:57.321Z,14.60
2017-09-24T05:13:24.668Z,14.60
2017-09-24T05:15:51.997Z,14.37
2017-09-24T05:18:19.317Z,13.70
2017-09-24T05:20:46.625Z,14.50
2017-09-24T05:23:13.941Z,14.50
2017-09-24T05:25:41.356Z,15.10
2017-09-24T05:28:08.673Z,14.57
2017-09-24T05:30:35.980Z,14.93
2017-09-24T05:33:03.335Z,14.87
2017-09-24T05:35:30.621Z,16.90
2017-09-24T05:37:57.944Z,14.73
2017-09-24T05:40:25.249Z,16.40
2017-09-24T05:42:52.585Z,15.70
2017-09-24T05:45:19.920Z,16.50
2017-09-24T05:47:47.276Z,17.90
2017-09-24T05:50:14.586Z,16.40
2017-09-24T05:52:41.932Z,16.67
2017-09-24T05:55:11.383Z,17.60
2017-09-24T05:57:38.715Z,17.23
2017-09-24T06:00:06.028Z,18.17
2017-09-24T06:02:33.343Z,18.00
2017-09-24T06:05:00.671Z,16.73
2017-09-24T06:07:28.016Z,18.87
2017-09-24T06:09:55.351Z,20.80
2017-09-24T06:12:22.689Z,20.60
2017-09-24T06:14:50.000Z,20.40
2017-09-24T06:17:17.305Z,23.40
2017-09-24T06:19:44.847Z,21.50
2017-09-24T06:22:12.148Z,21.30
2017-09-24T06:24:39.472Z,22.70
2017-09-24T06:27:06.783Z,22.97
2017-09-24T06:29:34.104Z,23.40
2017-09-24T06:32:01.412Z,24.60
2017-09-24T06:34:28.738Z,22.40
2017-09-24T06:36:56.036Z,22.80
2017-09-24T06:39:23.364Z,24.67
2017-09-24T06:41:50.676Z,27.50
2017-09-24T06:44:17.993Z,28.83
2017-09-24T06:46:45.357Z,33.63
2017-09-24T06:49:12.652Z,34.80
2017-09-24T06:51:39.969Z,34.40
2017-09-24T06:54:07.290Z,32.60
2017-09-24T06:56:34.643Z,32.60
2017-09-24T06:59:01.971Z,34.10
2017-09-24T07:01:29.320Z,37.50
2017-09-24T07:03:56.638Z,36.63
2017-09-24T07:06:23.965Z,39.30
2017-09-24T07:08:51.275Z,41.13
2017-09-24T07:11:18.605Z,38.30
2017-09-24T07:13:46.219Z,40.53
2017-09-24T07:16:13.610Z,44.00
2017-09-24T07:18:40.922Z,42.17
2017-09-24T07:21:08.591Z,41.20
2017-09-24T07:23:35.888Z,41.70
2017-09-24T07:26:03.224Z,40.77
2017-09-24T07:28:30.550Z,43.37
2017-09-24T07:30:57.849Z,41.67
2017-09-24T07:33:25.176Z,40.47
2017-09-24T07:35:52.484Z,43.43
2017-09-24T07:38:19.825Z,40.00
2017-09-24T07:40:47.112Z,38.23
2017-09-24T07:43:14.439Z,39.73
2017-09-24T07:45:41.758Z,36.20
2017-09-24T07:48:09.081Z,37.07
2017-09-24T07:50:36.379Z,33.10
2017-09-24T07:53:03.696Z,35.40
2017-09-24T07:55:31.010Z,34.43
2017-09-24T07:57:58.333Z,33.60
2017-09-24T08:00:25.632Z,31.97
2017-09-24T08:02:52.953Z,33.47
2017-09-24T08:05:20.282Z,33.70
2017-09-24T08:07:47.665Z,33.20
2017-09-24T08:10:14.964Z,34.87
2017-09-24T08:12:42.291Z,33.83
2017-09-24T08:15:09.618Z,30.73
2017-09-24T08:17:36.949Z,31.73
2017-09-24T08:20:04.270Z,30.27
2017-09-24T08:22:31.564Z,31.20
2017-09-24T08:24:58.947Z,32.00
2017-09-24T08:27:26.249Z,31.70
2017-09-24T08:29:53.597Z,32.73
2017-09-24T08:32:20.919Z,33.10
2017-09-24T08:34:48.243Z,34.27
2017-09-24T08:37:15.554Z,34.33
2017-09-24T08:39:42.878Z,34.87
2017-09-24T08:42:10.172Z,32.77
2017-09-24T08:44:37.492Z,32.53
2017-09-24T08:47:04.796Z,33.60
2017-09-24T08:49:32.120Z,32.87
2017-09-24T08:51:59.634Z,33.10
2017-09-24T08:54:26.983Z,33.77
2017-09-24T08:56:54.294Z,32.80
2017-09-24T08:59:21.819Z,32.60
2017-09-24T09:01:49.118Z,31.27
2017-09-24T09:04:16.416Z,30.87
2017-09-24T09:06:43.752Z,31.37
2017-09-24T09:09:11.065Z,32.67
2017-09-24T09:11:38.419Z,32.60
2017-09-24T09:14:06.070Z,32.30
2017-09-24T09:16:33.445Z,32.00
2017-09-24T09:19:00.760Z,31.80
2017-09-24T09:21:34.127Z,31.77
2017-09-24T09:24:01.440Z,30.50
2017-09-24T09:26:28.801Z,31.63
2017-09-24T09:28:56.124Z,32.43
2017-09-24T09:31:23.480Z,33.60
2017-09-24T09:33:52.747Z,33.70
2017-09-24T09:36:20.161Z,33.80
2017-09-24T09:38:47.461Z,32.07
2017-09-24T09:41:14.783Z,31.83
2017-09-24T09:43:45.968Z,33.97
2017-09-24T09:46:19.231Z,32.53
2017-09-24T09:48:46.558Z,33.37
2017-09-24T09:51:13.860Z,32.27
2017-09-24T09:53:41.171Z,33.37
2017-09-24T09:56:08.485Z,34.20
2017-09-24T09:58:35.804Z,34.23
2017-09-24T10:01:03.145Z,32.50
2017-09-24T10:03:30.485Z,33.37
2017-09-24T10:05:57.827Z,32.80
2017-09-24T10:08:31.224Z,32.93
2017-09-24T10:10:58.549Z,35.47
2017-09-24T10:13:25.891Z,35.43
2017-09-24T10:15:53.215Z,33.40
2017-09-24T10:18:20.549Z,35.20
2017-09-24T10:20:47.847Z,34.40
2017-09-24T10:23:15.168Z,33.83
2017-09-24T10:25:42.504Z,33.03
2017-09-24T10:28:15.803Z,33.77
2017-09-24T10:30:49.066Z,35.43
2017-09-24T10:33:16.496Z,33.80
2017-09-24T10:35:43.830Z,33.37
2017-09-24T10:38:11.149Z,33.83
2017-09-24T10:40:38.475Z,33.10
2017-09-24T10:43:05.799Z,34.20
2017-09-24T10:45:33.105Z,36.10
2017-09-24T10:48:00.456Z,35.73
2017-09-24T10:50:27.772Z,35.33
2017-09-24T10:52:55.132Z,35.07
2017-09-24T10:55:22.468Z,33.20
2017-09-24T10:57:49.812Z,34.20
2017-09-24T11:00:17.182Z,34.10
2017-09-24T11:02:44.474Z,33.73
2017-09-24T11:05:11.956Z,34.30
2017-09-24T11:07:39.248Z,33.30
2017-09-24T11:10:06.572Z,34.73
2017-09-24T11:12:33.864Z,34.93
2017-09-24T11:15:01.206Z,34.70
2017-09-24T11:17:28.509Z,34.67
2017-09-24T11:19:56.806Z,35.03
2017-09-24T11:22:24.136Z,34.97
2017-09-24T11:24:51.505Z,36.60
2017-09-24T11:27:18.820Z,38.00
2017-09-24T11:29:46.164Z,37.10
2017-09-24T11:32:13.482Z,36.70
2017-09-24T11:34:40.812Z,35.97
2017-09-24T11:37:08.111Z,36.33
2017-09-24T11:39:35.438Z,34.97
2017-09-24T11:42:02.755Z,36.00
2017-09-24T11:44:31.382Z,39.47
2017-09-24T11:46:58.684Z,38.80
2017-09-24T11:49:26.019Z,40.00
2017-09-24T11:51:53.378Z,37.73
2017-09-24T11:54:20.714Z,37.10
2017-09-24T11:56:48.045Z,39.20
2017-09-24T11:59:15.671Z,38.13
2017-09-24T12:01:42.992Z,38.20
2017-09-24T12:04:10.283Z,39.10
2017-09-24T12:06:37.616Z,38.70
2017-09-24T12:09:05.699Z,36.53
2017-09-24T12:11:33.928Z,40.30
2017-09-24T12:14:01.341Z,40.83
2017-09-24T12:16:28.685Z,37.30
2017-09-24T12:18:55.984Z,39.10
2017-09-24T12:21:23.317Z,38.77
2017-09-24T12:23:50.640Z,38.03
2017-09-24T12:26:18.047Z,37.90
2017-09-24T12:28:45.341Z,38.20
2017-09-24T12:31:12.720Z,37.90
2017-09-24T12:33:40.024Z,36.97
2017-09-24T12:36:07.431Z,38.40
2017-09-24T12:38:34.727Z,39.10
2017-09-24T12:41:02.070Z,36.60
2017-09-24T12:43:29.388Z,37.33
2017-09-24T12:45:56.744Z,37.10
2017-09-24T12:48:24.049Z,37.57
2017-09-24T12:50:51.374Z,36.40
2017-09-24T12:53:18.685Z,36.00
2017-09-24T12:55:45.992Z,36.70
2017-09-24T12:58:13.311Z,36.40
2017-09-24T13:00:40.629Z,35.20
2017-09-24T13:03:07.939Z,36.50
2017-09-24T13:05:35.288Z,37.23
2017-09-24T13:08:02.618Z,36.60
2017-09-24T13:10:29.930Z,36.03
2017-09-24T13:12:57.247Z,37.07
2017-09-24T13:15:24.580Z,36.50
2017-09-24T13:17:51.909Z,36.80
2017-09-24T13:20:19.204Z,37.93
2017-09-24T13:22:46.826Z,38.30
2017-09-24T13:25:14.152Z,37.10
2017-09-24T13:27:41.476Z,37.70
2017-09-24T13:30:08.788Z,36.90
2017-09-24T13:32:37.162Z,37.80
2017-09-24T13:35:04.463Z,38.90
2017-09-24T13:37:31.796Z,38.77
2017-09-24T13:39:59.120Z,38.57
2017-09-24T13:42:26.869Z,37.97
2017-09-24T13:44:54.246Z,39.27
2017-09-24T13:47:22.467Z,37.10
2017-09-24T13:49:49.784Z,38.23
2017-09-24T13:52:17.084Z,39.20
2017-09-24T13:54:44.427Z,37.47
2017-09-24T13:57:11.975Z,38.80
2017-09-24T13:59:39.631Z,39.40
2017-09-24T14:02:06.976Z,43.97
2017-09-24T14:04:34.329Z,44.47
2017-09-24T14:07:01.632Z,40.60
2017-09-24T14:09:28.988Z,36.10
2017-09-24T14:11:56.304Z,35.47
2017-09-24T14:14:23.655Z,34.10
2017-09-24T14:16:50.986Z,34.00
2017-09-24T14:19:18.333Z,33.90
2017-09-24T14:21:45.663Z,33.80
2017-09-24T14:24:12.982Z,32.80
2017-09-24T14:26:40.306Z,35.67
2017-09-24T14:29:07.631Z,33.73
2017-09-24T14:31:34.955Z,33.20
2017-09-24T14:34:02.300Z,35.40
2017-09-24T14:36:29.680Z,31.23
2017-09-24T14:38:57.010Z,32.70
2017-09-24T14:41:24.393Z,32.77
2017-09-24T14:43:51.717Z,33.73
2017-09-24T14:46:19.020Z,32.93
2017-09-24T14:48:46.340Z,32.40
2017-09-24T14:51:13.644Z,29.90
2017-09-24T14:53:40.984Z,30.10
2017-09-24T14:56:11.055Z,30.20
2017-09-24T14:58:38.366Z,27.70
2017-09-24T15:01:06.515Z,29.93
2017-09-24T15:03:34.137Z,29.17
2017-09-24T15:06:01.462Z,30.87
2017-09-24T15:08:28.770Z,31.60
2017-09-24T15:10:56.076Z,29.57
2017-09-24T15:13:23.406Z,30.27
2017-09-24T15:15:51.704Z,28.73
2017-09-24T15:18:19.033Z,34.20
2017-09-24T15:20:46.365Z,29.33
2017-09-24T15:23:13.705Z,28.07
2017-09-24T15:25:41.063Z,29.67
2017-09-24T15:28:08.560Z,31.07
2017-09-24T15:30:35.932Z,31.03
2017-09-24T15:33:03.273Z,31.90
2017-09-24T15:35:30.641Z,30.77
2017-09-24T15:37:57.952Z,31.90
2017-09-24T15:40:25.294Z,30.97
2017-09-24T15:42:52.653Z,30.67
2017-09-24T15:45:19.980Z,31.73
2017-09-24T15:47:47.331Z,31.50
2017-09-24T15:50:14.648Z,31.00
2017-09-24T15:52:42.220Z,28.83
2017-09-24T15:55:09.626Z,28.40
2017-09-24T15:57:36.953Z,31.07
2017-09-24T16:00:04.680Z,30.33
2017-09-24T16:02:31.992Z,30.40
2017-09-24T16:04:59.336Z,30.20
2017-09-24T16:07:26.684Z,31.90
2017-09-24T16:09:54.019Z,31.43
2017-09-24T16:12:21.358Z,30.90
2017-09-24T16:14:48.684Z,30.73
2017-09-24T16:17:15.990Z,32.00
2017-09-24T16:19:43.296Z,31.77
2017-09-24T16:22:10.628Z,32.23
2017-09-24T16:24:37.951Z,33.33
2017-09-24T16:27:05.307Z,31.87
2017-09-24T16:29:32.817Z,32.67
2017-09-24T16:32:00.139Z,48.17
2017-09-24T16:34:27.440Z,50.00
2017-09-24T16:36:54.801Z,45.50
2017-09-24T16:39:22.096Z,41.10
2017-09-24T16:41:50.428Z,43.30
2017-09-24T16:44:17.907Z,45.33
2017-09-24T16:46:45.244Z,52.70
2017-09-24T16:49:14.275Z,50.53
2017-09-24T16:51:41.588Z,51.67
2017-09-24T16:54:08.916Z,46.40
2017-09-24T16:56:36.239Z,44.33
2017-09-24T16:59:03.563Z,42.17
2017-09-24T17:01:31.226Z,40.87
2017-09-24T17:03:58.607Z,43.13
2017-09-24T17:06:25.893Z,42.80
2017-09-24T17:08:53.225Z,41.60
2017-09-24T17:11:20.561Z,39.70
2017-09-24T17:13:47.988Z,40.00
2017-09-24T17:16:15.308Z,39.93
2017-09-24T17:18:42.631Z,40.57
2017-09-24T17:21:10.936Z,38.73
2017-09-24T17:23:38.347Z,35.50
2017-09-24T17:26:05.695Z,37.53
2017-09-24T17:28:33.078Z,34.40
2017-09-24T17:31:00.418Z,34.20
2017-09-24T17:33:28.361Z,33.77
2017-09-24T17:35:56.600Z,36.33
2017-09-24T17:38:23.914Z,36.70
2017-09-24T17:40:51.220Z,35.60
2017-09-24T17:43:18.572Z,35.30
2017-09-24T17:45:45.881Z,35.10
2017-09-24T17:48:13.276Z,35.80
2017-09-24T17:50:40.571Z,34.70
2017-09-24T17:53:07.872Z,36.00
2017-09-24T17:55:35.266Z,36.00
2017-09-24T17:58:03.017Z,38.17
2017-09-24T18:00:30.369Z,35.90
2017-09-24T18:02:57.688Z,35.97
2017-09-24T18:05:25.054Z,38.40
2017-09-24T18:07:52.358Z,42.90
2017-09-24T18:10:19.749Z,43.03
2017-09-24T18:12:47.114Z,40.10
2017-09-24T18:15:14.527Z,44.27
2017-09-24T18:17:41.828Z,43.30
2017-09-24T18:20:09.152Z,42.27
2017-09-24T18:22:36.782Z,42.10
2017-09-24T18:25:04.222Z,38.63
2017-09-24T18:27:31.563Z,41.47
2017-09-24T18:29:58.916Z,39.37
2017-09-24T18:32:26.773Z,40.50
2017-09-24T18:34:54.112Z,43.63
2017-09-24T18:37:21.646Z,40.67
2017-09-24T18:39:48.954Z,42.90
2017-09-24T18:42:16.252Z,43.10
2017-09-24T18:44:43.596Z,41.50
2017-09-24T18:47:10.913Z,38.93
2017-09-24T18:49:39.755Z,39.33
2017-09-24T18:52:07.080Z,38.80
2017-09-24T18:54:34.379Z,38.80
2017-09-24T18:57:01.712Z,41.93
2017-09-24T18:59:29.031Z,40.50
2017-09-24T19:01:56.358Z,43.87
2017-09-24T19:04:23.661Z,45.80
2017-09-24T19:06:50.976Z,47.70
2017-09-24T19:09:18.296Z,44.10
2017-09-24T19:11:45.627Z,42.60
2017-09-24T19:14:12.928Z,38.17
2017-09-24T19:16:40.268Z,39.33
2017-09-24T19:19:08.496Z,36.80
2017-09-24T19:21:35.839Z,35.63
2017-09-24T19:24:03.169Z,34.47
2017-09-24T19:26:30.480Z,34.70
2017-09-24T19:28:57.791Z,35.30
2017-09-24T19:31:25.095Z,34.17
2017-09-24T19:33:52.768Z,34.10
2017-09-24T19:36:20.129Z,35.37
2017-09-24T19:38:47.726Z,38.53
2017-09-24T19:41:15.064Z,39.03
2017-09-24T19:43:42.625Z,39.90
2017-09-24T19:46:09.962Z,41.03
2017-09-24T19:48:37.307Z,37.73
2017-09-24T19:51:04.646Z,39.00
2017-09-24T19:53:32.006Z,37.57
2017-09-24T19:55:59.324Z,40.67
2017-09-24T19:58:26.680Z,36.97
2017-09-24T20:00:54.010Z,40.60
2017-09-24T20:03:21.373Z,42.93
2017-09-24T20:05:48.684Z,42.97
2017-09-24T20:08:16.017Z,42.00
2017-09-24T20:10:43.420Z,42.80
2017-09-24T20:13:10.791Z,43.37
2017-09-24T20:15:38.089Z,41.53
2017-09-24T20:18:05.392Z,42.73
2017-09-24T20:20:32.748Z,41.97
2017-09-24T20:23:00.094Z,41.60
2017-09-24T20:25:27.452Z,40.07
2017-09-24T20:27:55.729Z,39.23
2017-09-24T20:30:23.052Z,39.03
2017-09-24T20:32:50.356Z,37.40
2017-09-24T20:35:17.663Z,38.23
2017-09-24T20:37:44.959Z,38.57
2017-09-24T20:40:12.696Z,38.67
2017-09-24T20:42:40.984Z,39.90
2017-09-24T20:45:08.517Z,38.47
2017-09-24T20:47:37.761Z,36.53
2017-09-24T20:50:05.317Z,37.53
2017-09-24T20:52:32.614Z,38.43
2017-09-24T20:55:00.264Z,36.87
2017-09-24T20:57:27.564Z,38.07
2017-09-24T20:59:54.904Z,38.70
2017-09-24T21:02:22.256Z,39.07
2017-09-24T21:04:50.494Z,39.20
2017-09-24T21:07:17.807Z,36.90
2017-09-24T21:09:45.125Z,34.10
2017-09-24T21:12:12.657Z,33.43
2017-09-24T21:14:39.985Z,34.03
2017-09-24T21:17:07.350Z,36.27
2017-09-24T21:19:34.679Z,35.90
2017-09-24T21:22:02.023Z,36.30
2017-09-24T21:24:29.359Z,35.20
2017-09-24T21:26:56.723Z,37.07
2017-09-24T21:29:24.015Z,37.50
2017-09-24T21:31:51.333Z,34.70
2017-09-24T21:34:18.640Z,36.70
2017-09-24T21:36:46.035Z,34.73
2017-09-24T21:39:13.327Z,34.83
2017-09-24T21:41:40.738Z,33.13
2017-09-24T21:44:08.076Z,35.27
2017-09-24T21:46:35.391Z,34.87
2017-09-24T21:49:02.729Z,35.87
2017-09-24T21:51:30.060Z,37.10
2017-09-24T21:53:57.365Z,37.53
2017-09-24T21:56:24.700Z,40.87
2017-09-24T21:58:52.024Z,37.63
2017-09-24T22:01:19.353Z,40.17
2017-09-24T22:03:46.709Z,45.20
2017-09-24T22:06:14.017Z,39.37
2017-09-24T22:08:41.372Z,45.63
2017-09-24T22:11:08.712Z,44.53
2017-09-24T22:13:36.029Z,46.10
2017-09-24T22:16:03.338Z,43.67
2017-09-24T22:18:30.675Z,44.60
2017-09-24T22:20:57.991Z,41.70
2017-09-24T22:23:25.381Z,42.70
2017-09-24T22:25:52.721Z,42.33
2017-09-24T22:28:20.066Z,41.20
2017-09-24T22:30:47.443Z,41.37
2017-09-24T22:33:14.755Z,42.83
2017-09-24T22:35:42.052Z,43.37
2017-09-24T22:38:09.413Z,42.00
2017-09-24T22:40:36.760Z,40.47
2017-09-24T22:43:04.068Z,40.00
2017-09-24T22:45:31.418Z,38.97
2017-09-24T22:47:58.738Z,36.47
2017-09-24T22:50:26.084Z,39.23
2017-09-24T22:52:53.508Z,37.63
2017-09-24T22:55:21.607Z,35.30
2017-09-24T22:57:48.912Z,37.20
2017-09-24T23:00:16.303Z,36.97
2017-09-24T23:02:43.617Z,36.47
2017-09-24T23:05:10.959Z,36.20
2017-09-24T23:07:38.298Z,35.67
2017-09-24T23:10:05.636Z,35.73
2017-09-24T23:12:32.931Z,37.03
2017-09-24T23:15:00.248Z,38.33
2017-09-24T23:17:27.556Z,39.40
2017-09-24T23:19:54.891Z,38.37
2017-09-24T23:22:22.225Z,37.03
2017-09-24T23:24:49.575Z,36.10
2017-09-24T23:27:16.901Z,36.87
2017-09-24T23:29:44.203Z,36.90
2017-09-24T23:32:11.528Z,36.20
2017-09-24T23:34:38.850Z,37.50
2017-09-24T23:37:06.192Z,36.03
2017-09-24T23:39:33.515Z,34.47
2017-09-24T23:42:00.860Z,34.73
2017-09-24T23:44:28.248Z,32.90
2017-09-24T23:46:55.586Z,34.13
2017-09-24T23:49:22.884Z,34.20
2017-09-24T23:51:50.228Z,32.10
2017-09-24T23:54:17.565Z,33.40
2017-09-24T23:56:44.912Z,33.87
2017-09-24T23:59:12.236Z,33.53
